Latest Weather Observations for Glen Innes Airport

IDN60801

Issued at 12:32 am EDT Wednesday 13 December 2017 (issued every 30 minutes, with the page automatically refreshed every 10 minutes)

About weather observations | Map of weather stations | Latest weather observations for NSW | Other Formats
Station Details ID: 056243 Name: GLEN INNES AIRPORT AWS Lat: -29.68 Lon: 151.69 Height: 1044.3 m
Data from the previous 72 hours. | See also: Recent months at Glen Innes Airport
Date/Time
EDT
Temp
°C
App
Temp
°C
Dew
Point
°C
Rel
Hum
%
Delta-T
°C
Wind Press
QNH
hPa
Press
MSL
hPa
Rain since
9am
mm
Dir  Spd
km/h
Gust
km/h
Spd
kts
Gust
kts
13/12:30am 13.6 11.7 11.8 89 1.0 SE 13 15 7 8 1020.9 1015.9 0.0
13/12:28am 13.7 11.8 11.9 89 1.0 SE 13 15 7 8 1020.9 1015.9 0.0
13/12:00am 14.4 12.7 12.6 89 1.0 SE 13 17 7 9 1021.0 1016.1 0.0
 
Date/Time
EDT
Temp
°C
App
Temp
°C
Dew
Point
°C
Rel
Hum
%
Delta-T
°C
Wind Press
QNH
hPa
Press
MSL
hPa
Rain since
9am
mm
Dir  Spd
km/h
Gust
km/h
Spd
kts
Gust
kts
12/11:30pm 15.1 13.5 12.8 86 1.3 E 13 17 7 9 1021.4 1016.4 0.0
12/11:00pm 15.3 14.3 13.5 89 1.1 E 11 13 6 7 1021.4 1016.4 0.0
12/10:51pm 15.0 13.5 13.2 89 1.1 E 13 17 7 9 1021.4 1016.4 0.0
12/10:30pm 15.2 13.4 13.4 89 1.1 E 15 20 8 11 1021.3 1016.3 0.0
12/10:00pm 15.2 13.3 13.1 87 1.2 ESE 15 19 8 10 1021.3 1016.3 0.0
12/09:30pm 15.5 14.5 12.3 81 1.8 E 9 13 5 7 1021.3 1016.3 0.0
12/09:00pm 17.1 13.9 13.0 77 2.4 E 22 30 12 16 1021.0 1016.1 0.0
12/08:30pm 17.7 14.7 12.4 71 3.1 E 20 28 11 15 1020.9 1015.9 0.0
12/08:00pm 18.2 15.6 12.0 67 3.6 E 17 24 9 13 1020.6 1015.6 0.0
12/07:30pm 19.7 16.1 12.0 61 4.5 E 22 32 12 17 1020.2 1015.2 0.0
12/07:00pm 21.1 17.5 11.7 55 5.5 E 22 32 12 17 1019.9 1014.9 0.0
12/06:30pm 21.5 18.3 11.8 54 5.7 E 20 28 11 15 1019.6 1014.6 0.0
12/06:00pm 23.9 20.7 11.9 47 7.1 E 20 30 11 16 1019.3 1014.2 0.0
12/05:30pm 23.4 20.3 11.5 47 7.0 E 19 24 10 13 1019.1 1014.0 0.0
12/05:00pm 24.3 21.2 10.2 41 8.1 E 17 26 9 14 1019.1 1014.0 0.0
12/04:30pm 25.4 22.2 10.1 38 8.9 E 17 24 9 13 1019.1 1014.0 0.0
12/04:00pm 25.2 21.2 9.1 36 9.2 ESE 20 30 11 16 1019.3 1014.2 0.0
12/03:30pm 25.5 22.0 8.9 35 9.5 ESE 17 30 9 16 1019.4 1014.4 0.0
12/03:00pm 26.1 22.5 9.9 36 9.4 E 19 32 10 17 1019.5 1014.5 0.0
12/02:30pm 25.4 22.3 10.4 39 8.8 ESE 17 35 9 19 1019.9 1014.9 0.0
12/02:00pm 24.9 21.2 8.0 34 9.4 E 17 28 9 15 1020.3 1015.3 0.0
12/01:30pm 24.8 20.9 8.7 36 9.1 E 19 30 10 16 1020.6 1015.6 0.0
12/01:00pm 24.1 20.2 7.3 34 9.2 E 17 28 9 15 1020.9 1015.9 0.0
12/12:30pm 24.2 19.7 6.9 33 9.5 E 20 30 11 16 1021.3 1016.3 0.0
12/12:00pm 23.7 19.6 8.6 38 8.5 ESE 20 39 11 21 1021.4 1016.4 0.0
12/11:30am 23.1 18.1 8.0 38 8.4 ESE 24 33 13 18 1021.6 1016.6 0.0
12/11:00am 22.4 18.3 11.5 50 6.4 ESE 24 32 13 17 1021.6 1016.6 0.0
12/10:30am 21.4 17.1 9.3 46 6.8 ESE 22 32 12 17 1021.8 1016.8 0.0
12/10:00am 21.0 16.7 10.8 52 5.9 ESE 24 30 13 16 1021.9 1017.0 0.0
12/09:30am 19.5 15.4 10.2 55 5.3 ESE 22 28 12 15 1021.8 1016.8 0.0
12/09:00am 18.6 15.0 10.7 60 4.5 ESE 20 28 11 15 1021.9 1017.0 0.0
12/08:30am 17.2 14.2 12.1 72 3.0 ESE 19 24 10 13 1022.0 1017.1 0.0
12/08:00am 15.2 11.9 10.8 75 2.5 ESE 19 28 10 15 1021.8 1016.8 0.0
12/07:30am 13.7 10.4 10.9 83 1.6 ESE 19 24 10 13 1021.5 1016.5 0.0
12/07:14am 13.0 9.6 10.7 86 1.3 ESE 19 24 10 13 1021.3 1016.3 0.0
12/07:00am 12.4 9.4 10.6 89 1.0 ESE 17 24 9 13 1021.0 1016.1 0.0
12/06:30am 10.9 7.3 9.8 93 0.6 ESE 19 24 10 13 1020.7 1015.7 0.0
12/06:22am 10.9 7.7 9.8 93 0.6 ESE 17 24 9 13 1020.6 1015.6 0.0
12/06:00am 10.4 7.8 9.2 92 0.6 ESE 13 17 7 9 1020.3 1015.3 0.0
12/05:30am 10.9 8.0 9.7 92 0.6 SE 15 20 8 11 1019.9 1014.9 0.0
12/05:00am 11.3 8.1 10.0 92 0.7 SE 17 26 9 14 1019.8 1014.8 0.0
12/04:30am 11.5 8.0 10.1 91 0.8 SE 19 26 10 14 1019.7 1014.7 0.0
12/04:26am 11.5 8.0 10.1 91 0.8 SE 19 26 10 14 1019.6 1014.6 0.0
12/04:00am 11.4 8.6 10.0 91 0.8 ESE 15 20 8 11 1019.7 1014.7 0.0
12/03:30am 11.6 9.2 10.0 90 0.9 SE 13 20 7 11 1019.8 1014.8 0.0
12/03:00am 11.7 9.3 10.1 90 0.9 SE 13 17 7 9 1020.2 1015.2 0.0
12/02:30am 11.7 8.2 10.1 90 0.9 ESE 19 24 10 13 1020.2 1015.2 0.0
12/02:00am 12.4 8.4 10.6 89 1.0 SE 22 32 12 17 1020.5 1015.5 0.0
12/01:30am 12.3 7.9 10.5 89 1.0 ESE 24 33 13 18 1020.6 1015.6 0.0
12/01:05am 12.6 7.2 10.8 89 1.0 SE 30 41 16 22 1020.7 1015.7 0.0
12/01:00am 12.8 7.4 10.9 88 1.0 SE 30 41 16 22 1020.7 1015.7 0.0
12/12:30am 13.6 10.2 11.3 86 1.3 SE 20 28 11 15 1021.4 1016.4 0.0
12/12:00am 13.9 11.2 11.8 87 1.2 ESE 17 24 9 13 1021.6 1016.6 0.0
 
Date/Time
EDT
Temp
°C
App
Temp
°C
Dew
Point
°C
Rel
Hum
%
Delta-T
°C
Wind Press
QNH
hPa
Press
MSL
hPa
Rain since
9am
mm
Dir  Spd
km/h
Gust
km/h
Spd
kts
Gust
kts
11/11:30pm 14.0 10.9 11.7 86 1.3 ESE 19 28 10 15 1021.9 1017.0 0.0
11/11:00pm 14.6 11.5 12.1 85 1.4 ESE 20 28 11 15 1021.9 1017.0 0.0
11/10:30pm 15.1 12.2 12.8 86 1.3 ESE 20 32 11 17 1021.7 1016.7 0.0
11/10:10pm 15.0 12.7 13.0 88 1.2 ESE 17 24 9 13 1021.6 1016.6 0.0
11/10:00pm 14.6 11.8 12.6 88 1.1 ESE 19 24 10 13 1021.5 1016.5 0.0
11/09:30pm 14.9 12.8 12.4 85 1.4 ESE 15 20 8 11 1021.3 1016.3 0.0
11/09:00pm 15.8 13.6 12.0 78 2.2 E 15 20 8 11 1021.2 1016.2 0.0
11/08:30pm 16.6 13.8 11.5 72 2.9 E 17 22 9 12 1020.9 1015.9 0.0
11/08:00pm 17.8 14.5 10.9 64 3.9 ESE 19 24 10 13 1020.7 1015.7 0.0
11/07:30pm 19.3 15.4 10.8 58 4.9 ESE 22 30 12 16 1020.0 1015.0 0.0
11/07:00pm 21.1 17.5 10.6 51 6.0 E 20 28 11 15 1019.8 1014.8 0.0
11/06:30pm 22.5 18.1 10.3 46 7.0 ESE 24 30 13 16 1019.4 1014.4 0.0
11/06:00pm 24.2 20.9 9.4 39 8.4 E 17 24 9 13 1018.8 1013.8 0.0
11/05:30pm 24.7 22.9 7.8 34 9.4 ENE 7 17 4 9 1018.6 1013.6 0.0
11/05:00pm 25.0 21.4 8.5 35 9.3 E 17 22 9 12 1018.7 1013.7 0.0
11/04:30pm 25.1 21.3 9.0 36 9.2 E 19 28 10 15 1018.8 1013.8 0.0
11/04:00pm 25.4 21.8 8.4 34 9.6 ESE 17 26 9 14 1019.2 1014.1 0.0
11/03:30pm 25.1 21.8 8.1 34 9.5 ESE 15 24 8 13 1019.4 1014.4 0.0
11/03:00pm 24.4 21.1 8.0 35 9.1 ENE 15 24 8 13 1019.6 1014.6 0.0
11/02:30pm 24.6 20.8 7.7 34 9.4 SE 17 24 9 13 1020.2 1015.2 0.0
11/02:00pm 24.3 21.8 9.8 40 8.3 ENE 13 22 7 12 1020.4 1015.4 0.0
11/01:30pm 23.6 20.4 6.8 34 9.1 SE 13 20 7 11 1020.8 1015.8 0.0
11/01:00pm 23.9 21.4 8.3 37 8.7 SE 11 19 6 10 1021.2 1016.2 0.0
11/12:30pm 22.8 20.9 8.9 41 7.8 SSE 9 20 5 11 1021.5 1016.5 0.0
11/12:00pm 22.4 19.9 8.1 40 7.9 E 11 22 6 12 1021.9 1017.0 0.0
11/11:30am 21.2 18.5 9.1 46 6.8 ESE 13 20 7 11 1022.3 1017.3 0.0
11/11:00am 20.9 18.2 10.4 51 6.0 SE 15 24 8 13 1022.4 1017.4 0.0
11/10:30am 19.6 16.4 10.0 54 5.4 ESE 17 22 9 12 1022.4 1017.4 0.0
11/10:00am 18.7 15.7 10.8 60 4.5 ESE 17 24 9 13 1022.5 1017.5 0.0
11/09:30am 18.0 14.6 10.4 61 4.3 E 19 24 10 13 1022.7 1017.7 0.0
11/09:00am 16.7 12.6 10.1 65 3.7 ESE 22 30 12 16 1022.8 1017.9 0.0
11/08:30am 15.8 12.3 10.8 72 2.8 ESE 20 26 11 14 1022.7 1017.7 0.0
11/08:00am 14.7 10.3 10.5 76 2.3 ESE 24 30 13 16 1022.5 1017.5 0.0
11/07:30am 13.7 9.8 10.7 82 1.7 ESE 22 28 12 15 1022.3 1017.3 0.0
11/07:00am 12.8 9.2 10.7 87 1.2 ESE 20 24 11 13 1022.0 1017.1 0.0
11/06:30am 11.2 8.0 9.8 91 0.8 SE 17 20 9 11 1021.9 1017.0 0.0
11/06:22am 11.0 7.4 9.8 92 0.6 ESE 19 20 10 11 1021.8 1016.8 0.0
11/06:00am 10.7 7.4 9.5 92 0.6 SE 17 20 9 11 1021.8 1016.8 0.0
11/05:30am 10.7 7.4 9.5 92 0.6 SE 17 22 9 12 1021.7 1016.7 0.0
11/05:29am 10.6 7.3 9.4 92 0.6 SE 17 22 9 12 1021.7 1016.7 0.0
11/05:00am 10.8 7.1 9.4 91 0.7 SE 19 24 10 13 1021.5 1016.5 0.0
11/04:30am 11.0 7.7 9.6 91 0.7 SE 17 26 9 14 1021.3 1016.3 0.0
11/04:00am 11.0 8.1 9.8 92 0.6 SE 15 20 8 11 1021.4 1016.4 0.0
11/03:34am 10.9 8.0 9.5 91 0.7 SE 15 19 8 10 1021.4 1016.4 0.0
11/03:30am 11.2 8.3 9.8 91 0.8 SE 15 19 8 10 1021.4 1016.4 0.0
11/03:00am 11.6 9.0 10.7 94 0.5 ESE 15 19 8 10 1021.4 1016.4 0.0
11/02:46am 10.3 8.1 9.2 93 0.6 ESE 11 19 6 10 1021.4 1016.4 0.0
11/02:30am 10.2 7.5 8.8 91 0.7 ESE 13 17 7 9 1021.6 1016.6 0.0
11/02:00am 10.7 7.7 9.3 91 0.7 SE 15 19 8 10 1022.0 1017.1 0.0
11/01:30am 11.1 8.2 9.5 90 0.9 SE 15 17 8 9 1022.4 1017.4 0.0
11/01:00am 11.1 8.5 9.2 88 1.0 ESE 13 17 7 9 1022.7 1017.7 0.0
11/12:30am 11.7 8.1 9.8 88 1.0 ESE 19 22 10 12 1022.9 1018.0 0.0
11/12:00am 12.4 9.2 10.1 86 1.2 ESE 17 22 9 12 1023.5 1018.5 0.0
 
Date/Time
EDT
Temp
°C
App
Temp
°C
Dew
Point
°C
Rel
Hum
%
Delta-T
°C
Wind Press
QNH
hPa
Press
MSL
hPa
Rain since
9am
mm
Dir  Spd
km/h
Gust
km/h
Spd
kts
Gust
kts
10/11:30pm 13.0 9.6 10.5 85 1.4 ESE 19 28 10 15 1023.7 1018.8 0.0
10/11:00pm 13.4 10.0 11.1 86 1.3 ESE 20 26 11 14 1023.8 1018.9 0.0
10/10:30pm 13.7 10.3 11.2 85 1.4 E 20 30 11 16 1023.7 1018.8 0.0
10/10:00pm 14.2 10.6 11.7 85 1.4 E 22 30 12 16 1023.6 1018.6 0.0
10/09:30pm 14.5 11.3 12.0 85 1.4 E 20 28 11 15 1023.3 1018.3 0.0
10/09:00pm 15.0 11.9 12.3 84 1.5 ESE 20 28 11 15 1023.0 1018.1 0.0
10/08:30pm 15.6 12.6 12.4 81 1.8 ESE 20 26 11 14 1022.9 1018.0 0.0
10/08:00pm 16.5 13.4 12.1 75 2.5 ESE 20 28 11 15 1022.7 1017.7 0.0
10/07:30pm 18.1 14.5 11.7 66 3.7 E 22 28 12 15 1022.4 1017.4 0.0
10/07:00pm 19.6 15.8 11.1 58 4.9 E 22 30 12 16 1022.0 1017.1 0.0
10/06:30pm 20.8 16.5 10.6 52 5.8 E 24 30 13 16 1021.5 1016.5 0.0
10/06:00pm 21.7 17.2 10.2 48 6.6 E 24 33 13 18 1021.3 1016.3 0.0
10/05:30pm 22.4 19.0 10.5 47 6.9 E 19 32 10 17 1021.2 1016.2 0.0
10/05:00pm 22.5 18.8 10.3 46 7.0 E 20 35 11 19 1021.3 1016.3 0.0
10/04:30pm 21.9 18.2 9.4 45 7.1 ESE 19 30 10 16 1021.4 1016.4 0.0
10/04:00pm 22.2 18.9 9.4 44 7.2 ESE 17 22 9 12 1021.5 1016.5 0.0
10/03:30pm 21.9 18.0 8.8 43 7.3 ESE 19 32 10 17 1021.7 1016.7 0.0
10/03:00pm 21.7 17.5 8.2 42 7.4 ESE 20 30 11 16 1021.9 1017.0 0.0
10/02:30pm 22.8 19.5 10.9 47 6.9 E 19 26 10 14 1022.2 1017.2 0.0
10/02:00pm 22.4 18.6 8.9 42 7.5 ENE 19 28 10 15 1022.3 1017.3 0.0
10/01:30pm 22.0 18.7 9.5 45 7.1 E 17 28 9 15 1022.6 1017.6 0.0
10/01:00pm 22.1 19.4 11.8 52 6.0 E 17 32 9 17 1022.9 1018.0 0.0
10/12:30pm 21.6 18.2 11.3 52 6.0 ESE 20 30 11 16 1023.3 1018.3 0.0
10/12:00pm 21.1 16.8 10.6 51 6.0 E 24 32 13 17 1023.7 1018.8 0.0
10/11:30am 20.5 16.6 12.0 58 5.0 ESE 24 32 13 17 1023.8 1018.9 0.0
10/11:00am 19.5 15.2 10.8 57 5.0 ESE 24 35 13 19 1024.0 1019.1 0.0
10/10:30am 19.1 14.3 11.7 62 4.3 ESE 28 37 15 20 1024.1 1019.2 0.0
10/10:00am 18.8 14.0 11.6 63 4.1 E 28 39 15 21 1024.1 1019.2 0.0
10/09:30am 18.2 13.4 11.7 66 3.8 E 28 39 15 21 1024.1 1019.2 0.0
10/09:00am 17.4 13.1 11.9 70 3.2 E 26 33 14 18 1024.1 1019.2 0.0
10/08:30am 16.6 12.5 11.3 71 3.0 ESE 24 32 13 17 1023.9 1019.0 0.0
10/08:00am 15.0 10.1 11.4 79 2.0 ESE 28 37 15 20 1023.9 1019.0 0.0
10/07:30am 13.5 10.4 11.6 88 1.1 ESE 19 22 10 12 1023.6 1018.6 0.0
10/07:00am 11.8 8.8 10.7 93 0.6 ESE 17 22 9 12 1023.3 1018.3 0.0
10/06:30am 10.4 8.3 9.6 95 0.4 SE 11 15 6 8 1022.8 1017.9 0.0
10/06:06am 8.7 5.3 7.8 94 0.5 ESE 15 17 8 9 1022.7 1017.7 0.0
10/06:00am 8.6 5.6 7.7 94 0.5 ESE 13 17 7 9 1022.7 1017.7 0.0
10/05:30am 8.4 5.7 7.3 93 0.5 E 11 13 6 7 1022.4 1017.4 0.0
10/05:29am 8.3 5.6 7.2 93 0.5 E 11 13 6 7 1022.4 1017.4 0.0
10/05:00am 9.3 5.7 8.2 93 0.6 ESE 17 17 9 9 1022.0 1017.1 0.0
10/04:30am 10.1 7.0 9.0 93 0.6 ESE 15 19 8 10 1021.9 1017.0 0.0
10/04:00am 10.2 5.5 9.1 93 0.6 ESE 24 26 13 14 1021.8 1016.8 0.0
10/03:30am 10.2 6.8 9.1 93 0.6 SE 17 19 9 10 1021.8 1016.8 0.0
10/03:00am 10.7 7.4 9.5 92 0.6 SE 17 20 9 11 1021.7 1016.7 0.0
10/02:30am 11.2 7.6 10.0 92 0.6 SE 19 24 10 13 1021.8 1016.8 0.0
10/02:00am 10.9 7.6 9.5 91 0.7 ESE 17 19 9 10 1021.8 1016.8 0.0
10/01:30am 11.5 8.0 10.1 91 0.8 SE 19 22 10 12 1022.2 1017.2 0.0
10/01:00am 11.9 8.2 10.1 89 1.0 ESE 20 24 11 13 1022.2 1017.2 0.0

Other Formats:

Comma delimited format used in spreadsheet applications
http://www.bom.gov.au/fwo/IDN60801/IDN60801.94588.axf

JavaScript Object Notation format (JSON) in row-major order
http://www.bom.gov.au/fwo/IDN60801/IDN60801.94588.json